Time;durP1;ratioP1;P1;durP2;ratioP2;P2;SDS_P1;SDS_P2;PMS_P1;PMS_P2;Temp;Humidity;BMP_temperature;BMP_pressure;BME280_temperature;BME280_humidity;BME280_pressure;Samples;Min_cycle;Max_cycle;Signal;HPM_P1;HPM_P2
2022/12/21 00:00:39;;;;;;;0.00;0.00;;;;;;;;;;1740326;28;20210;-72
2022/12/21 00:01:31;;;;;;;0.00;0.00;;;;;;;;;;1739191;28;20670;-72
2022/12/21 00:02:22;;;;;;;0.00;0.00;;;;;;;;;;1739921;28;20576;-72
2022/12/21 00:03:15;;;;;;;0.00;0.00;;;;;;;;;;1739754;28;20214;-72
2022/12/21 00:04:08;;;;;;;0.00;0.00;;;;;;;;;;1739758;28;20619;-72
2022/12/21 00:05:00;;;;;;;0.00;0.00;;;;;;;;;;1739609;28;20206;-72
2022/12/21 00:05:57;;;;;;;0.00;0.00;;;;;;;;;;1739935;28;20283;-73
2022/12/21 00:06:48;;;;;;;0.00;0.00;;;;;;;;;;1739136;28;20639;-73
2022/12/21 00:07:40;;;;;;;0.00;0.00;;;;;;;;;;1739795;28;20360;-73
2022/12/21 00:08:31;;;;;;;0.00;0.00;;;;;;;;;;1736542;28;20207;-73
2022/12/21 00:09:23;;;;;;;0.00;0.00;;;;;;;;;;1740171;28;20505;-73
2022/12/21 00:10:15;;;;;;;0.00;0.00;;;;;;;;;;1740606;28;20643;-73
2022/12/21 00:11:06;;;;;;;0.00;0.00;;;;;;;;;;1740785;28;20461;-73
2022/12/21 00:11:58;;;;;;;0.00;0.00;;;;;;;;;;1740263;28;20516;-73
2022/12/21 00:12:49;;;;;;;0.00;0.00;;;;;;;;;;1740476;28;20218;-73
2022/12/21 00:13:42;;;;;;;0.00;0.00;;;;;;;;;;1739918;28;20202;-73
2022/12/21 00:14:33;;;;;;;0.00;0.00;;;;;;;;;;1740276;28;20203;-73
2022/12/21 00:15:25;;;;;;;0.00;0.00;;;;;;;;;;1739633;28;20242;-73
2022/12/21 00:16:17;;;;;;;0.00;0.00;;;;;;;;;;1733510;28;20211;-73
2022/12/21 00:17:09;;;;;;;0.00;0.00;;;;;;;;;;1740597;28;20202;-73
2022/12/21 00:18:00;;;;;;;0.00;0.00;;;;;;;;;;1740844;28;20321;-73
2022/12/21 00:18:53;;;;;;;0.00;0.00;;;;;;;;;;1738206;28;20676;-73
2022/12/21 00:19:44;;;;;;;0.00;0.00;;;;;;;;;;1740087;28;20268;-73
2022/12/21 00:20:36;;;;;;;0.00;0.00;;;;;;;;;;1740576;28;20199;-74
2022/12/21 00:21:28;;;;;;;0.00;0.00;;;;;;;;;;1740005;28;21905;-72
2022/12/21 00:22:20;;;;;;;0.00;0.00;;;;;;;;;;1740276;28;20256;-72
2022/12/21 00:23:11;;;;;;;0.00;0.00;;;;;;;;;;1740255;28;20598;-72
2022/12/21 00:24:03;;;;;;;0.00;0.00;;;;;;;;;;1740357;28;20615;-72
2022/12/21 00:24:56;;;;;;;0.00;0.00;;;;;;;;;;1739929;28;20213;-72
2022/12/21 00:25:47;;;;;;;0.00;0.00;;;;;;;;;;1740570;28;20222;-72
2022/12/21 00:26:39;;;;;;;0.00;0.00;;;;;;;;;;1738616;28;20195;-72
2022/12/21 00:27:30;;;;;;;0.00;0.00;;;;;;;;;;1739831;28;20207;-72
2022/12/21 00:28:22;;;;;;;0.00;0.00;;;;;;;;;;1739461;28;20226;-72
2022/12/21 00:29:14;;;;;;;0.00;0.00;;;;;;;;;;1740749;28;20256;-72
2022/12/21 00:30:06;;;;;;;0.00;0.00;;;;;;;;;;1740213;28;20302;-72
2022/12/21 00:31:03;;;;;;;0.00;0.00;;;;;;;;;;1740291;28;20650;-73
2022/12/21 00:31:55;;;;;;;0.00;0.00;;;;;;;;;;1739940;28;20211;-73
2022/12/21 00:32:46;;;;;;;0.00;0.00;;;;;;;;;;1739931;28;20207;-73
2022/12/21 00:33:38;;;;;;;0.00;0.00;;;;;;;;;;1740007;28;20199;-73
2022/12/21 00:34:31;;;;;;;0.00;0.00;;;;;;;;;;1739771;28;20239;-73
2022/12/21 00:35:23;;;;;;;0.00;0.00;;;;;;;;;;1740113;28;20225;-73
2022/12/21 00:36:14;;;;;;;0.00;0.00;;;;;;;;;;1740622;28;20210;-72
2022/12/21 00:37:06;;;;;;;0.00;0.00;;;;;;;;;;1739803;28;20413;-72
2022/12/21 00:37:57;;;;;;;0.00;0.00;;;;;;;;;;1740061;28;20702;-72
2022/12/21 00:38:49;;;;;;;0.00;0.00;;;;;;;;;;1739871;28;20205;-72
2022/12/21 00:39:40;;;;;;;0.00;0.00;;;;;;;;;;1739972;28;20617;-73
2022/12/21 00:40:32;;;;;;;0.00;0.00;;;;;;;;;;1740543;28;20206;-72
2022/12/21 00:41:24;;;;;;;0.00;0.00;;;;;;;;;;1739753;28;20206;-73
2022/12/21 00:42:16;;;;;;;0.00;0.00;;;;;;;;;;1740550;28;20286;-73
2022/12/21 00:43:07;;;;;;;0.00;0.00;;;;;;;;;;1739624;28;20240;-74
2022/12/21 00:43:59;;;;;;;0.00;0.00;;;;;;;;;;1739997;28;20202;-73
2022/12/21 00:44:50;;;;;;;0.00;0.00;;;;;;;;;;1739791;28;20268;-73
2022/12/21 00:45:43;;;;;;;0.00;0.00;;;;;;;;;;1740347;28;20272;-73
2022/12/21 00:46:34;;;;;;;0.00;0.00;;;;;;;;;;1737598;28;20207;-72
2022/12/21 00:47:26;;;;;;;0.00;0.00;;;;;;;;;;1740035;28;20195;-72
2022/12/21 00:48:17;;;;;;;0.00;0.00;;;;;;;;;;1737250;28;20321;-72
2022/12/21 00:49:10;;;;;;;0.00;0.00;;;;;;;;;;1739971;28;20527;-72
2022/12/21 00:50:05;;;;;;;0.00;0.00;;;;;;;;;;1739710;28;20211;-72
2022/12/21 00:51:03;;;;;;;0.00;0.00;;;;;;;;;;1738489;28;20219;-72
2022/12/21 00:51:54;;;;;;;0.00;0.00;;;;;;;;;;1739430;28;20215;-72
2022/12/21 00:52:46;;;;;;;0.00;0.00;;;;;;;;;;1740166;28;20648;-72
2022/12/21 00:53:37;;;;;;;0.00;0.00;;;;;;;;;;1738931;28;20211;-72
2022/12/21 00:54:29;;;;;;;0.00;0.00;;;;;;;;;;1739971;28;20203;-72
2022/12/21 00:55:20;;;;;;;0.00;0.00;;;;;;;;;;1736618;28;20597;-72
2022/12/21 00:56:12;;;;;;;0.00;0.00;;;;;;;;;;1733400;28;20208;-73
2022/12/21 00:57:03;;;;;;;0.00;0.00;;;;;;;;;;1736160;28;20765;-74
2022/12/21 00:57:55;;;;;;;0.00;0.00;;;;;;;;;;1738696;28;20671;-74
2022/12/21 00:58:47;;;;;;;0.00;0.00;;;;;;;;;;1738131;28;20203;-74
2022/12/21 00:59:39;;;;;;;0.00;0.00;;;;;;;;;;1739761;28;20679;-73
2022/12/21 01:00:30;;;;;;;0.00;0.00;;;;;;;;;;1740269;28;20264;-73
2022/12/21 01:01:23;;;;;;;0.00;0.00;;;;;;;;;;1737252;28;20329;-72
2022/12/21 01:02:14;;;;;;;0.00;0.00;;;;;;;;;;1741188;28;20267;-72
2022/12/21 01:03:06;;;;;;;0.00;0.00;;;;;;;;;;1737625;28;20218;-72
2022/12/21 01:03:57;;;;;;;0.00;0.00;;;;;;;;;;1737467;28;20264;-72
2022/12/21 01:04:49;;;;;;;0.00;0.00;;;;;;;;;;1739743;28;20219;-72
2022/12/21 01:05:41;;;;;;;0.00;0.00;;;;;;;;;;1740320;28;20336;-72
2022/12/21 01:06:34;;;;;;;0.00;0.00;;;;;;;;;;1739468;28;20210;-73
2022/12/21 01:07:25;;;;;;;0.00;0.00;;;;;;;;;;1740252;28;20253;-73
2022/12/21 01:08:18;;;;;;;0.00;0.00;;;;;;;;;;1739491;28;20227;-73
2022/12/21 01:09:10;;;;;;;0.00;0.00;;;;;;;;;;1739931;28;20203;-73
2022/12/21 01:10:05;;;;;;;0.00;0.00;;;;;;;;;;1739500;28;20683;-72
2022/12/21 01:10:56;;;;;;;0.00;0.00;;;;;;;;;;1738170;28;20215;-72
2022/12/21 01:11:48;;;;;;;0.00;0.00;;;;;;;;;;1739681;28;20611;-72
2022/12/21 01:12:39;;;;;;;0.00;0.00;;;;;;;;;;1740116;28;20574;-72
2022/12/21 01:13:33;;;;;;;0.00;0.00;;;;;;;;;;1739694;28;20584;-72
2022/12/21 01:14:24;;;;;;;0.00;0.00;;;;;;;;;;1740008;28;20211;-72
2022/12/21 01:15:16;;;;;;;0.00;0.00;;;;;;;;;;1740531;28;20206;-72
2022/12/21 01:16:11;;;;;;;0.00;0.00;;;;;;;;;;1739919;28;20636;-73
2022/12/21 01:17:03;;;;;;;0.00;0.00;;;;;;;;;;1739764;28;20211;-73
2022/12/21 01:17:54;;;;;;;0.00;0.00;;;;;;;;;;1739993;28;20272;-73
2022/12/21 01:18:46;;;;;;;0.00;0.00;;;;;;;;;;1739367;28;20206;-73
2022/12/21 01:19:37;;;;;;;0.00;0.00;;;;;;;;;;1739954;28;20643;-73
2022/12/21 01:20:29;;;;;;;0.00;0.00;;;;;;;;;;1736616;28;20207;-73
2022/12/21 01:21:22;;;;;;;0.00;0.00;;;;;;;;;;1740068;28;20203;-73
2022/12/21 01:22:14;;;;;;;0.00;0.00;;;;;;;;;;1737827;28;20238;-73
2022/12/21 01:23:05;;;;;;;0.00;0.00;;;;;;;;;;1739842;28;20331;-73
2022/12/21 01:23:57;;;;;;;0.00;0.00;;;;;;;;;;1739910;28;20199;-73
2022/12/21 01:24:48;;;;;;;0.00;0.00;;;;;;;;;;1739592;28;20214;-73
2022/12/21 01:25:40;;;;;;;0.00;0.00;;;;;;;;;;1740233;28;20203;-74
2022/12/21 01:26:31;;;;;;;0.00;0.00;;;;;;;;;;1739534;28;20255;-72
2022/12/21 01:27:23;;;;;;;0.00;0.00;;;;;;;;;;1740044;28;20613;-72
2022/12/21 01:28:14;;;;;;;0.00;0.00;;;;;;;;;;1735932;28;20224;-72
2022/12/21 01:29:06;;;;;;;0.00;0.00;;;;;;;;;;1739014;28;20203;-72
2022/12/21 01:29:57;;;;;;;0.00;0.00;;;;;;;;;;1739324;28;21322;-72
2022/12/21 01:30:49;;;;;;;0.00;0.00;;;;;;;;;;1740132;28;20264;-72
2022/12/21 01:31:40;;;;;;;0.00;0.00;;;;;;;;;;1739514;28;20203;-72
2022/12/21 01:32:32;;;;;;;0.00;0.00;;;;;;;;;;1739734;28;20207;-72
2022/12/21 01:33:23;;;;;;;0.00;0.00;;;;;;;;;;1739146;28;20698;-72
2022/12/21 01:34:15;;;;;;;0.00;0.00;;;;;;;;;;1740007;28;20740;-72
2022/12/21 01:35:07;;;;;;;0.00;0.00;;;;;;;;;;1739602;28;20275;-72
2022/12/21 01:36:03;;;;;;;0.00;0.00;;;;;;;;;;1739938;28;20215;-72
2022/12/21 01:36:55;;;;;;;0.00;0.00;;;;;;;;;;1739506;28;20211;-72
2022/12/21 01:37:47;;;;;;;0.00;0.00;;;;;;;;;;1739554;28;20207;-72
2022/12/21 01:38:40;;;;;;;0.00;0.00;;;;;;;;;;1739219;28;20271;-72
2022/12/21 01:39:32;;;;;;;0.00;0.00;;;;;;;;;;1739663;28;20619;-73
2022/12/21 01:40:23;;;;;;;0.00;0.00;;;;;;;;;;1739961;28;20175;-73
2022/12/21 01:41:16;;;;;;;0.00;0.00;;;;;;;;;;1740094;28;20541;-73
2022/12/21 01:42:10;;;;;;;0.00;0.00;;;;;;;;;;1739644;28;20617;-72
2022/12/21 01:43:01;;;;;;;0.00;0.00;;;;;;;;;;1739377;28;20618;-72
2022/12/21 01:43:55;;;;;;;0.00;0.00;;;;;;;;;;1739593;28;20263;-73
2022/12/21 01:44:56;;;;;;;0.00;0.00;;;;;;;;;;1739492;28;20255;-72
2022/12/21 01:45:51;;;;;;;0.03;0.03;;;;;;;;;;1739967;28;20815;-72
2022/12/21 01:46:43;;;;;;;0.00;0.00;;;;;;;;;;1739539;28;20210;-74
2022/12/21 01:47:39;;;;;;;0.00;0.00;;;;;;;;;;1734520;28;20207;-74
2022/12/21 01:48:30;;;;;;;0.00;0.00;;;;;;;;;;1735842;28;20219;-74
2022/12/21 01:49:23;;;;;;;0.00;0.00;;;;;;;;;;1740156;28;20618;-74
2022/12/21 01:50:32;;;;;;;0.00;0.00;;;;;;;;;;1739910;28;20203;-74
2022/12/21 01:51:24;;;;;;;0.00;0.00;;;;;;;;;;1732793;28;22094;-74
2022/12/21 01:52:17;;;;;;;0.00;0.00;;;;;;;;;;1739870;28;20649;-74
2022/12/21 01:53:11;;;;;;;0.00;0.00;;;;;;;;;;1739083;28;20239;-73
2022/12/21 01:54:05;;;;;;;0.00;0.00;;;;;;;;;;1740491;28;20210;-73
2022/12/21 01:54:59;;;;;;;0.00;0.00;;;;;;;;;;1736289;28;20207;-73
2022/12/21 01:55:51;;;;;;;0.00;0.00;;;;;;;;;;1736711;28;20215;-74
2022/12/21 01:56:45;;;;;;;0.00;0.00;;;;;;;;;;1736715;28;20615;-72
2022/12/21 01:57:36;;;;;;;0.00;0.00;;;;;;;;;;1734851;28;20572;-72
2022/12/21 01:58:29;;;;;;;0.00;0.00;;;;;;;;;;1738743;28;20214;-72
2022/12/21 01:59:21;;;;;;;0.00;0.00;;;;;;;;;;1740264;28;20401;-72
2022/12/21 02:00:14;;;;;;;0.00;0.00;;;;;;;;;;1739425;28;20214;-72
2022/12/21 02:01:05;;;;;;;0.00;0.00;;;;;;;;;;1739778;28;20222;-73
2022/12/21 02:01:59;;;;;;;0.00;0.00;;;;;;;;;;1739362;28;20241;-73
2022/12/21 02:02:51;;;;;;;0.00;0.00;;;;;;;;;;1739477;28;20206;-73
2022/12/21 02:03:46;;;;;;;0.00;0.00;;;;;;;;;;1739236;28;20404;-74
2022/12/21 02:04:37;;;;;;;0.00;0.00;;;;;;;;;;1739339;28;20210;-74
2022/12/21 02:05:32;;;;;;;0.00;0.00;;;;;;;;;;1733478;28;20265;-73
2022/12/21 02:06:26;;;;;;;0.00;0.00;;;;;;;;;;1739043;28;20218;-73
2022/12/21 02:07:20;;;;;;;0.00;0.00;;;;;;;;;;1733053;28;20246;-74
2022/12/21 02:08:11;;;;;;;0.00;0.00;;;;;;;;;;1738647;28;20219;-73
2022/12/21 02:09:04;;;;;;;0.00;0.00;;;;;;;;;;1739340;28;20207;-74
2022/12/21 02:09:55;;;;;;;0.00;0.00;;;;;;;;;;1739060;28;20326;-74
2022/12/21 02:10:47;;;;;;;0.00;0.00;;;;;;;;;;1739777;28;20305;-73
2022/12/21 02:11:38;;;;;;;0.00;0.00;;;;;;;;;;1739162;28;20214;-73
2022/12/21 02:12:31;;;;;;;0.00;0.00;;;;;;;;;;1739444;28;20209;-72
2022/12/21 02:13:22;;;;;;;0.00;0.00;;;;;;;;;;1739558;28;20297;-72
2022/12/21 02:14:14;;;;;;;0.00;0.00;;;;;;;;;;1739574;28;20207;-72
2022/12/21 02:15:06;;;;;;;0.00;0.00;;;;;;;;;;1739150;28;20614;-72
2022/12/21 02:16:07;;;;;;;0.00;0.00;;;;;;;;;;1739675;28;20510;-72
2022/12/21 02:17:07;;;;;;;0.00;0.00;;;;;;;;;;1736701;28;20212;-72
2022/12/21 02:18:05;;;;;;;0.00;0.00;;;;;;;;;;1739557;28;20646;-72
2022/12/21 02:19:09;;;;;;;0.00;0.00;;;;;;;;;;1739634;28;20641;-72
2022/12/21 02:20:21;;;;;;;0.00;0.00;;;;;;;;;;1739200;28;20219;-73
2022/12/21 02:21:22;;;;;;;0.00;0.00;;;;;;;;;;1710938;28;20320;-73
2022/12/21 02:22:17;;;;;;;0.00;0.00;;;;;;;;;;1739468;28;20218;-72
2022/12/21 02:23:20;;;;;;;0.00;0.00;;;;;;;;;;1739020;28;20203;-72
2022/12/21 02:24:35;;;;;;;0.00;0.00;;;;;;;;;;1739452;28;20214;-72
2022/12/21 02:25:39;;;;;;;0.00;0.00;;;;;;;;;;1735400;28;20201;-72
2022/12/21 02:26:41;;;;;;;0.00;0.00;;;;;;;;;;1739341;28;20385;-72
2022/12/21 02:27:50;;;;;;;0.00;0.00;;;;;;;;;;1739559;28;20205;-72
2022/12/21 02:29:03;;;;;;;0.00;0.00;;;;;;;;;;1734653;28;20624;-72
2022/12/21 02:30:08;;;;;;;0.00;0.00;;;;;;;;;;1739115;28;20207;-72
2022/12/21 02:31:04;;;;;;;0.10;0.10;;;;;;;;;;1737577;28;20215;-72
2022/12/21 02:32:00;;;;;;;0.00;0.00;;;;;;;;;;1737225;28;20216;-72
2022/12/21 02:33:07;;;;;;;0.00;0.00;;;;;;;;;;1739348;28;20293;-72
2022/12/21 02:34:05;;;;;;;0.00;0.00;;;;;;;;;;1734978;28;20223;-72
2022/12/21 02:35:00;;;;;;;0.00;0.00;;;;;;;;;;1721272;28;20216;-72
2022/12/21 02:35:58;;;;;;;0.00;0.00;;;;;;;;;;1722837;28;20780;-72
2022/12/21 02:36:56;;;;;;;0.00;0.00;;;;;;;;;;1720119;28;20611;-72
2022/12/21 02:37:56;;;;;;;0.00;0.00;;;;;;;;;;1721591;28;20216;-72
2022/12/21 02:38:51;;;;;;;0.00;0.00;;;;;;;;;;1720656;28;20200;-72
2022/12/21 02:39:49;;;;;;;0.00;0.00;;;;;;;;;;1718870;28;20292;-72
2022/12/21 02:40:46;;;;;;;0.00;0.00;;;;;;;;;;1721471;28;20232;-72
2022/12/21 02:41:47;;;;;;;0.00;0.00;;;;;;;;;;1721931;28;20201;-72
2022/12/21 02:44:14;;;;;;;0.00;0.00;;;;;;;;;;1725789;28;20218;-72
2022/12/21 02:45:13;;;;;;;0.00;0.00;;;;;;;;;;1720489;28;20209;-72
2022/12/21 02:46:08;;;;;;;0.00;0.00;;;;;;;;;;1725314;28;20409;-73
2022/12/21 02:47:04;;;;;;;0.00;0.00;;;;;;;;;;1721650;28;20236;-73
2022/12/21 02:47:57;;;;;;;0.00;0.00;;;;;;;;;;1724514;28;20566;-74
2022/12/21 02:48:50;;;;;;;0.00;0.00;;;;;;;;;;1721911;28;20224;-74
2022/12/21 02:49:45;;;;;;;0.00;0.00;;;;;;;;;;1723865;28;20266;-74
2022/12/21 02:50:39;;;;;;;0.00;0.00;;;;;;;;;;1720674;28;20209;-73
2022/12/21 02:51:34;;;;;;;0.00;0.00;;;;;;;;;;1722736;28;20622;-73
2022/12/21 02:52:37;;;;;;;0.00;0.00;;;;;;;;;;1726113;28;20224;-74
2022/12/21 02:53:30;;;;;;;0.00;0.00;;;;;;;;;;1718716;28;20259;-73
2022/12/21 02:54:23;;;;;;;0.00;0.00;;;;;;;;;;1720243;28;20208;-74
2022/12/21 02:55:15;;;;;;;0.00;0.00;;;;;;;;;;1719243;28;20221;-73
2022/12/21 02:56:15;;;;;;;0.00;0.00;;;;;;;;;;1723745;28;20212;-73
2022/12/21 02:57:06;;;;;;;0.00;0.00;;;;;;;;;;1719515;28;20228;-73
2022/12/21 02:58:15;;;;;;;0.00;0.00;;;;;;;;;;1722329;28;20204;-72
2022/12/21 02:59:07;;;;;;;0.00;0.00;;;;;;;;;;1720872;28;20270;-72
2022/12/21 03:00:00;;;;;;;0.00;0.00;;;;;;;;;;1722992;28;20216;-73
2022/12/21 03:01:02;;;;;;;0.00;0.00;;;;;;;;;;1725944;28;20223;-74
2022/12/21 03:02:04;;;;;;;0.00;0.00;;;;;;;;;;1720487;28;20209;-73
2022/12/21 03:04:28;;;;;;;0.00;0.00;;;;;;;;;;1719357;28;20192;-74
2022/12/21 03:05:31;;;;;;;0.00;0.00;;;;;;;;;;1721158;28;20205;-74
2022/12/21 03:06:30;;;;;;;0.00;0.00;;;;;;;;;;1721431;28;20624;-73
2022/12/21 03:07:32;;;;;;;0.00;0.00;;;;;;;;;;1723931;28;20250;-74
2022/12/21 03:08:28;;;;;;;0.00;0.00;;;;;;;;;;1718758;28;20239;-73
2022/12/21 03:09:27;;;;;;;0.00;0.00;;;;;;;;;;1719108;28;20643;-74
2022/12/21 03:10:23;;;;;;;0.00;0.00;;;;;;;;;;1721109;28;20197;-74
2022/12/21 03:11:14;;;;;;;0.00;0.00;;;;;;;;;;1724427;28;20287;-74
2022/12/21 03:12:09;;;;;;;0.00;0.00;;;;;;;;;;1722667;28;20222;-74
2022/12/21 03:13:07;;;;;;;0.00;0.00;;;;;;;;;;1725384;28;20212;-74
2022/12/21 03:14:05;;;;;;;0.00;0.00;;;;;;;;;;1725522;28;20204;-74
2022/12/21 03:15:00;;;;;;;0.00;0.00;;;;;;;;;;1722093;28;20213;-74
2022/12/21 03:15:56;;;;;;;0.00;0.00;;;;;;;;;;1725266;28;20214;-74
2022/12/21 03:16:49;;;;;;;0.00;0.00;;;;;;;;;;1725219;28;20212;-72
2022/12/21 03:17:44;;;;;;;0.00;0.00;;;;;;;;;;1725524;28;20201;-73
2022/12/21 03:18:39;;;;;;;0.00;0.00;;;;;;;;;;1720259;28;20315;-72
2022/12/21 03:19:33;;;;;;;0.00;0.00;;;;;;;;;;1725285;28;20554;-72
2022/12/21 03:20:25;;;;;;;0.00;0.00;;;;;;;;;;1726101;28;20500;-72
2022/12/21 03:21:18;;;;;;;0.00;0.00;;;;;;;;;;1725251;28;20211;-74
2022/12/21 03:22:12;;;;;;;0.00;0.00;;;;;;;;;;1720362;28;21005;-74
2022/12/21 03:23:06;;;;;;;0.00;0.00;;;;;;;;;;1720781;28;20210;-73
2022/12/21 03:24:00;;;;;;;0.00;0.00;;;;;;;;;;1720061;28;20719;-73
2022/12/21 03:24:57;;;;;;;0.00;0.00;;;;;;;;;;1721788;28;20219;-74
2022/12/21 03:25:51;;;;;;;0.00;0.00;;;;;;;;;;1725759;28;20230;-73
2022/12/21 03:26:46;;;;;;;0.00;0.00;;;;;;;;;;1721844;28;20205;-74
2022/12/21 03:27:40;;;;;;;0.00;0.00;;;;;;;;;;1720186;28;20205;-74
2022/12/21 03:28:33;;;;;;;0.00;0.00;;;;;;;;;;1723458;28;20196;-74
2022/12/21 03:29:27;;;;;;;0.00;0.00;;;;;;;;;;1726009;28;20235;-73
2022/12/21 03:30:20;;;;;;;0.05;0.05;;;;;;;;;;1724329;28;20204;-74
2022/12/21 03:31:13;;;;;;;0.00;0.00;;;;;;;;;;1725475;28;20289;-72
2022/12/21 03:32:07;;;;;;;0.08;0.08;;;;;;;;;;1722245;28;20204;-72
2022/12/21 03:33:01;;;;;;;0.00;0.00;;;;;;;;;;1725418;28;20468;-72
2022/12/21 03:33:55;;;;;;;0.00;0.00;;;;;;;;;;1722251;28;20323;-72
2022/12/21 03:34:48;;;;;;;0.00;0.00;;;;;;;;;;1737390;28;20296;-72
2022/12/21 03:35:43;;;;;;;0.00;0.00;;;;;;;;;;1739453;28;20199;-73
2022/12/21 03:36:36;;;;;;;0.00;0.00;;;;;;;;;;1738874;28;20260;-72
2022/12/21 03:37:30;;;;;;;0.00;0.00;;;;;;;;;;1738389;28;20397;-72
2022/12/21 03:38:24;;;;;;;0.00;0.00;;;;;;;;;;1738796;28;20203;-72
2022/12/21 03:39:17;;;;;;;0.00;0.00;;;;;;;;;;1739065;28;20199;-73
2022/12/21 03:40:10;;;;;;;0.00;0.00;;;;;;;;;;1738659;28;20279;-72
2022/12/21 03:41:03;;;;;;;0.00;0.00;;;;;;;;;;1736321;28;20553;-73
2022/12/21 03:41:57;;;;;;;0.00;0.00;;;;;;;;;;1738661;28;20218;-74
2022/12/21 03:42:51;;;;;;;0.00;0.00;;;;;;;;;;1738952;28;20194;-74
2022/12/21 03:43:43;;;;;;;0.00;0.00;;;;;;;;;;1739046;28;20699;-74
2022/12/21 03:44:38;;;;;;;0.00;0.00;;;;;;;;;;1738877;28;20297;-73
2022/12/21 03:45:30;;;;;;;0.00;0.00;;;;;;;;;;1739178;28;20600;-73
2022/12/21 03:46:24;;;;;;;0.00;0.00;;;;;;;;;;1739298;28;20198;-72
2022/12/21 03:47:17;;;;;;;0.00;0.00;;;;;;;;;;1738964;28;20215;-72
2022/12/21 03:48:14;;;;;;;0.00;0.00;;;;;;;;;;1738889;28;20306;-73
2022/12/21 03:49:07;;;;;;;0.00;0.00;;;;;;;;;;1739058;28;20660;-72
2022/12/21 03:50:02;;;;;;;0.00;0.00;;;;;;;;;;1738793;28;21245;-72
2022/12/21 03:50:55;;;;;;;0.00;0.00;;;;;;;;;;1739234;28;20216;-74
2022/12/21 03:51:50;;;;;;;0.00;0.00;;;;;;;;;;1738882;28;20226;-73
2022/12/21 03:52:44;;;;;;;0.00;0.00;;;;;;;;;;1734185;28;20269;-73
2022/12/21 03:53:41;;;;;;;0.00;0.00;;;;;;;;;;1738455;28;20203;-73
2022/12/21 03:54:35;;;;;;;0.00;0.00;;;;;;;;;;1739124;28;20245;-73
2022/12/21 03:55:29;;;;;;;0.00;0.00;;;;;;;;;;1738978;28;20192;-74
2022/12/21 03:56:22;;;;;;;0.00;0.00;;;;;;;;;;1735152;28;20203;-73
2022/12/21 03:57:15;;;;;;;0.00;0.00;;;;;;;;;;1738186;28;20207;-72
2022/12/21 03:58:07;;;;;;;0.00;0.00;;;;;;;;;;1738486;28;20215;-72
2022/12/21 03:59:00;;;;;;;0.00;0.00;;;;;;;;;;1739175;28;20625;-72
2022/12/21 03:59:52;;;;;;;0.00;0.00;;;;;;;;;;1738633;28;20242;-72
2022/12/21 04:00:46;;;;;;;0.00;0.00;;;;;;;;;;1739565;28;20257;-72
2022/12/21 04:01:40;;;;;;;0.00;0.00;;;;;;;;;;1738575;28;20207;-72
2022/12/21 04:02:36;;;;;;;0.00;0.00;;;;;;;;;;1739111;28;20202;-72
2022/12/21 04:03:32;;;;;;;0.00;0.00;;;;;;;;;;1738804;28;20199;-72
2022/12/21 04:04:27;;;;;;;0.00;0.00;;;;;;;;;;1732681;28;20568;-72
2022/12/21 04:05:21;;;;;;;0.00;0.00;;;;;;;;;;1738864;28;20211;-72
2022/12/21 04:06:16;;;;;;;0.00;0.00;;;;;;;;;;1738673;28;20203;-72
2022/12/21 04:07:08;;;;;;;0.00;0.00;;;;;;;;;;1738784;28;20240;-72
2022/12/21 04:08:00;;;;;;;0.00;0.00;;;;;;;;;;1738611;28;20195;-72
2022/12/21 04:08:52;;;;;;;0.00;0.00;;;;;;;;;;1735475;28;20211;-72
2022/12/21 04:09:45;;;;;;;0.00;0.00;;;;;;;;;;1738690;28;20202;-72
2022/12/21 04:10:37;;;;;;;0.00;0.00;;;;;;;;;;1739340;28;20256;-72
2022/12/21 04:12:43;;;;;;;0.00;0.00;;;;;;;;;;1734241;28;20644;-72
2022/12/21 04:13:34;;;;;;;0.00;0.00;;;;;;;;;;1738718;28;20211;-72
2022/12/21 04:14:25;;;;;;;0.00;0.00;;;;;;;;;;1739261;28;20199;-72
2022/12/21 04:15:18;;;;;;;0.00;0.00;;;;;;;;;;1738884;28;20207;-72
2022/12/21 04:16:09;;;;;;;0.00;0.00;;;;;;;;;;1738812;28;20211;-72
2022/12/21 04:17:02;;;;;;;0.00;0.00;;;;;;;;;;1738652;28;20555;-72
2022/12/21 04:17:53;;;;;;;0.00;0.00;;;;;;;;;;1738773;28;20207;-72
2022/12/21 04:19:59;;;;;;;0.00;0.00;;;;;;;;;;1738604;28;20222;-72
2022/12/21 04:20:50;;;;;;;0.00;0.00;;;;;;;;;;1739418;28;20211;-72
2022/12/21 04:21:41;;;;;;;0.00;0.00;;;;;;;;;;1738719;28;20191;-74
2022/12/21 04:28:23;;;;;;;0.00;0.00;;;;;;;;;;1735962;28;20273;-73
2022/12/21 04:29:14;;;;;;;0.00;0.00;;;;;;;;;;1739104;28;20301;-73
2022/12/21 04:30:06;;;;;;;0.00;0.00;;;;;;;;;;1739212;28;20597;-74
2022/12/21 04:30:58;;;;;;;0.00;0.00;;;;;;;;;;1735863;28;20540;-73
2022/12/21 04:31:49;;;;;;;0.00;0.00;;;;;;;;;;1738756;28;20548;-72
2022/12/21 04:32:42;;;;;;;0.00;0.00;;;;;;;;;;1739123;28;20210;-72
2022/12/21 04:33:33;;;;;;;0.00;0.00;;;;;;;;;;1738623;28;20206;-72
2022/12/21 04:34:26;;;;;;;0.00;0.00;;;;;;;;;;1739398;28;20405;-72
2022/12/21 04:35:17;;;;;;;0.00;0.00;;;;;;;;;;1738993;28;20794;-72
2022/12/21 04:37:35;;;;;;;0.00;0.00;;;;;;;;;;1738728;28;20206;-72
2022/12/21 04:38:27;;;;;;;0.00;0.00;;;;;;;;;;1731856;28;20287;-72
2022/12/21 04:39:18;;;;;;;0.00;0.00;;;;;;;;;;1740262;28;20309;-72
2022/12/21 04:40:10;;;;;;;0.00;0.00;;;;;;;;;;1740153;28;20366;-72
2022/12/21 04:41:01;;;;;;;0.00;0.00;;;;;;;;;;1740373;28;20620;-72
2022/12/21 04:41:54;;;;;;;0.00;0.00;;;;;;;;;;1739807;28;20203;-72
2022/12/21 04:42:45;;;;;;;0.00;0.00;;;;;;;;;;1740379;28;20206;-72
2022/12/21 04:43:38;;;;;;;0.00;0.00;;;;;;;;;;1739368;28;20199;-72
2022/12/21 04:44:29;;;;;;;0.00;0.00;;;;;;;;;;1740466;28;20215;-72
2022/12/21 04:45:21;;;;;;;0.00;0.00;;;;;;;;;;1739983;28;20211;-72
2022/12/21 04:46:13;;;;;;;0.00;0.00;;;;;;;;;;1740093;28;20207;-72
2022/12/21 04:47:05;;;;;;;0.00;0.00;;;;;;;;;;1739801;28;20282;-72
2022/12/21 04:47:56;;;;;;;0.00;0.00;;;;;;;;;;1739869;28;20211;-72
2022/12/21 04:48:48;;;;;;;0.00;0.00;;;;;;;;;;1737309;28;20204;-72
2022/12/21 04:49:40;;;;;;;0.00;0.00;;;;;;;;;;1739693;28;20307;-72
2022/12/21 04:50:32;;;;;;;0.00;0.00;;;;;;;;;;1740585;28;20206;-72
2022/12/21 04:51:24;;;;;;;0.00;0.00;;;;;;;;;;1733529;28;20196;-73
2022/12/21 04:52:16;;;;;;;0.00;0.00;;;;;;;;;;1739929;28;20651;-72
2022/12/21 04:53:07;;;;;;;0.00;0.00;;;;;;;;;;1739509;28;20283;-72
2022/12/21 04:53:59;;;;;;;0.00;0.00;;;;;;;;;;1739882;28;20221;-72
2022/12/21 04:54:50;;;;;;;0.00;0.00;;;;;;;;;;1739746;28;20215;-72
2022/12/21 04:55:45;;;;;;;0.00;0.00;;;;;;;;;;1739748;28;20613;-72
2022/12/21 04:56:36;;;;;;;0.00;0.00;;;;;;;;;;1736317;28;20361;-72
2022/12/21 04:57:28;;;;;;;0.00;0.00;;;;;;;;;;1740570;28;20272;-72
2022/12/21 04:58:19;;;;;;;0.00;0.00;;;;;;;;;;1735541;28;20208;-72
2022/12/21 04:59:11;;;;;;;0.00;0.00;;;;;;;;;;1739064;28;20277;-72
2022/12/21 05:00:05;;;;;;;0.00;0.00;;;;;;;;;;1739624;28;20263;-72
2022/12/21 05:00:57;;;;;;;0.00;0.00;;;;;;;;;;1740384;28;20272;-72
2022/12/21 05:01:48;;;;;;;0.00;0.00;;;;;;;;;;1736202;28;20211;-73
2022/12/21 05:02:40;;;;;;;0.00;0.00;;;;;;;;;;1734178;28;20204;-72
2022/12/21 05:03:31;;;;;;;0.00;0.00;;;;;;;;;;1739984;28;20207;-72
2022/12/21 05:04:23;;;;;;;0.00;0.00;;;;;;;;;;1733378;28;20199;-72
2022/12/21 05:05:16;;;;;;;0.00;0.00;;;;;;;;;;1738899;28;20268;-72
2022/12/21 05:06:08;;;;;;;0.00;0.00;;;;;;;;;;1739931;28;20203;-73
2022/12/21 05:06:59;;;;;;;0.00;0.00;;;;;;;;;;1739717;28;20268;-74
2022/12/21 05:07:53;;;;;;;0.00;0.00;;;;;;;;;;1739929;28;20222;-74
2022/12/21 05:08:44;;;;;;;0.00;0.00;;;;;;;;;;1739109;28;20537;-73
2022/12/21 05:09:37;;;;;;;0.00;0.00;;;;;;;;;;1740016;28;20234;-73
2022/12/21 05:10:28;;;;;;;0.00;0.00;;;;;;;;;;1740490;28;20272;-73
2022/12/21 05:11:21;;;;;;;0.00;0.00;;;;;;;;;;1740017;28;20203;-73
2022/12/21 05:12:12;;;;;;;0.00;0.00;;;;;;;;;;1738303;28;20206;-73
2022/12/21 05:13:04;;;;;;;0.00;0.00;;;;;;;;;;1739804;28;20199;-73
2022/12/21 05:13:55;;;;;;;0.00;0.00;;;;;;;;;;1736832;28;20522;-73
2022/12/21 05:14:47;;;;;;;0.00;0.00;;;;;;;;;;1739629;28;20628;-73
2022/12/21 05:15:38;;;;;;;0.00;0.00;;;;;;;;;;1740284;28;20264;-73
2022/12/21 05:16:30;;;;;;;0.00;0.00;;;;;;;;;;1739829;28;20261;-73
2022/12/21 05:17:21;;;;;;;0.00;0.00;;;;;;;;;;1739955;28;20252;-72
2022/12/21 05:18:13;;;;;;;0.00;0.00;;;;;;;;;;1739625;28;20203;-72
2022/12/21 05:19:04;;;;;;;0.00;0.00;;;;;;;;;;1739725;28;20583;-72
2022/12/21 05:19:56;;;;;;;0.00;0.00;;;;;;;;;;1739421;28;20195;-72
2022/12/21 05:20:48;;;;;;;0.00;0.00;;;;;;;;;;1740126;28;20207;-72
2022/12/21 05:21:40;;;;;;;0.00;0.00;;;;;;;;;;1739582;28;20214;-72
2022/12/21 05:22:31;;;;;;;0.00;0.00;;;;;;;;;;1740143;28;20260;-72
2022/12/21 05:23:22;;;;;;;0.00;0.00;;;;;;;;;;1739230;28;20206;-72
2022/12/21 05:24:14;;;;;;;0.00;0.00;;;;;;;;;;1739954;28;20256;-73
2022/12/21 05:25:05;;;;;;;0.00;0.00;;;;;;;;;;1739712;28;20263;-72
2022/12/21 05:25:57;;;;;;;0.00;0.00;;;;;;;;;;1739908;28;20548;-74
2022/12/21 05:26:48;;;;;;;0.00;0.00;;;;;;;;;;1739488;28;20207;-74
2022/12/21 05:27:40;;;;;;;0.00;0.00;;;;;;;;;;1740093;28;20700;-74
2022/12/21 05:28:32;;;;;;;0.00;0.00;;;;;;;;;;1734449;28;20354;-73
2022/12/21 05:29:23;;;;;;;0.00;0.00;;;;;;;;;;1739823;28;20203;-74
2022/12/21 05:30:15;;;;;;;0.00;0.00;;;;;;;;;;1739767;28;20237;-74
2022/12/21 05:31:07;;;;;;;0.00;0.00;;;;;;;;;;1739829;28;20198;-72
2022/12/21 05:31:58;;;;;;;0.00;0.00;;;;;;;;;;1739420;28;20207;-72
2022/12/21 05:32:50;;;;;;;0.00;0.00;;;;;;;;;;1739844;28;20624;-72
2022/12/21 05:33:41;;;;;;;0.00;0.00;;;;;;;;;;1739342;28;20371;-72